createdAt,value
2022-09-23T00:01:38.263Z,55.70
2022-09-23T00:04:06.280Z,54.70
2022-09-23T00:06:35.571Z,55.90
2022-09-23T00:09:03.472Z,56.10
2022-09-23T00:11:31.507Z,55.70
2022-09-23T00:14:01.089Z,55.50
2022-09-23T00:16:32.564Z,56.40
2022-09-23T00:19:00.997Z,57.40
2022-09-23T00:21:29.913Z,57.40
2022-09-23T00:23:59.213Z,57.40
2022-09-23T00:26:27.657Z,59.00
2022-09-23T00:28:55.995Z,56.70
2022-09-23T00:31:26.051Z,57.50
2022-09-23T00:33:54.772Z,57.00
2022-09-23T00:36:22.827Z,58.20
2022-09-23T00:38:50.761Z,58.20
2022-09-23T00:41:20.484Z,58.40
2022-09-23T00:43:50.457Z,58.40
2022-09-23T00:46:22.728Z,58.90
2022-09-23T00:48:56.063Z,57.80
2022-09-23T00:51:28.479Z,57.80
2022-09-23T00:53:56.967Z,58.50
2022-09-23T00:56:26.434Z,57.90
2022-09-23T00:58:55.393Z,57.80
2022-09-23T01:01:25.623Z,57.00
2022-09-23T01:03:55.529Z,56.80
2022-09-23T01:06:23.431Z,57.60
2022-09-23T01:08:52.325Z,57.60
2022-09-23T01:11:38.878Z,57.70
2022-09-23T01:14:34.420Z,55.00
2022-09-23T01:17:08.167Z,54.80
2022-09-23T01:20:01.604Z,57.10
2022-09-23T01:22:35.791Z,58.30
2022-09-23T01:25:25.757Z,59.60
2022-09-23T01:28:11.587Z,58.50
2022-09-23T01:30:48.360Z,57.50
2022-09-23T01:33:24.307Z,57.50
2022-09-23T01:36:05.250Z,55.40
2022-09-23T01:38:40.070Z,57.30
2022-09-23T01:41:19.499Z,57.50
2022-09-23T01:43:53.826Z,58.00
2022-09-23T01:46:28.904Z,58.20
2022-09-23T01:49:03.306Z,57.40
2022-09-23T01:51:35.585Z,57.80
2022-09-23T01:54:09.423Z,57.40
2022-09-23T01:56:41.397Z,58.20
2022-09-23T01:59:15.373Z,58.20
2022-09-23T02:01:50.884Z,58.00
2022-09-23T02:04:23.753Z,57.60
2022-09-23T02:06:56.273Z,56.80
2022-09-23T02:09:26.652Z,54.90
2022-09-23T02:12:00.489Z,55.30
2022-09-23T02:14:34.067Z,55.30
2022-09-23T02:17:08.852Z,56.10
2022-09-23T02:19:43.676Z,56.40
2022-09-23T02:22:16.934Z,56.20
2022-09-23T02:24:45.134Z,57.00
2022-09-23T02:27:19.749Z,57.90
2022-09-23T02:29:54.902Z,57.10
2022-09-23T02:32:31.340Z,56.20
2022-09-23T02:35:06.979Z,57.10
2022-09-23T02:37:43.475Z,57.10
2022-09-23T02:40:20.009Z,57.10
2022-09-23T02:42:55.063Z,56.40
2022-09-23T02:45:23.051Z,58.10
2022-09-23T02:48:02.533Z,59.20
2022-09-23T02:50:31.400Z,58.90
2022-09-23T02:53:00.919Z,58.50
2022-09-23T02:55:32.312Z,57.20
2022-09-23T02:58:01.962Z,58.00
2022-09-23T03:00:40.228Z,58.30
2022-09-23T03:03:24.208Z,58.40
2022-09-23T03:05:57.307Z,58.10
2022-09-23T03:08:48.729Z,57.10
2022-09-23T03:11:17.863Z,57.20
2022-09-23T03:13:55.182Z,57.60
2022-09-23T03:16:32.770Z,57.70
2022-09-23T03:19:12.845Z,58.20
2022-09-23T03:21:46.448Z,57.20
2022-09-23T03:24:15.959Z,54.70
2022-09-23T03:26:47.969Z,55.90
2022-09-23T03:29:17.905Z,57.40
2022-09-23T03:31:46.489Z,57.00
2022-09-23T03:34:21.151Z,57.60
2022-09-23T03:36:56.197Z,58.00
2022-09-23T03:39:34.373Z,58.60
2022-09-23T03:42:06.816Z,58.30
2022-09-23T03:44:39.368Z,58.20
2022-09-23T03:47:07.503Z,58.50
2022-09-23T03:49:40.231Z,57.30
2022-09-23T03:52:08.421Z,57.90
2022-09-23T03:54:36.352Z,57.00
2022-09-23T03:57:04.583Z,58.30
2022-09-23T03:59:33.078Z,58.40
2022-09-23T04:02:02.536Z,58.20
2022-09-23T04:04:33.949Z,57.00
2022-09-23T04:07:04.339Z,55.60
2022-09-23T04:09:32.582Z,55.40
2022-09-23T04:12:00.820Z,56.20
2022-09-23T04:14:28.680Z,57.20
2022-09-23T04:16:56.743Z,56.60
2022-09-23T04:19:24.715Z,56.20
2022-09-23T04:21:52.612Z,56.10
2022-09-23T04:24:22.076Z,55.40
2022-09-23T04:26:53.504Z,55.60
2022-09-23T04:29:21.539Z,55.00
2022-09-23T04:31:49.924Z,56.00
2022-09-23T04:34:19.317Z,56.10
2022-09-23T04:36:48.902Z,56.00
2022-09-23T04:39:18.166Z,57.10
2022-09-23T04:41:47.570Z,56.60
2022-09-23T04:44:16.480Z,57.20
2022-09-23T04:46:47.889Z,58.60
2022-09-23T04:49:16.397Z,57.20
2022-09-23T04:51:45.013Z,55.40
2022-09-23T04:54:14.350Z,56.10
2022-09-23T04:56:42.413Z,56.40
2022-09-23T04:59:11.586Z,55.80
2022-09-23T05:01:39.540Z,55.80
2022-09-23T05:04:10.622Z,56.10
2022-09-23T05:06:38.460Z,57.50
2022-09-23T05:09:09.216Z,56.20
2022-09-23T05:11:37.371Z,58.80
2022-09-23T05:14:05.226Z,60.70
2022-09-23T05:16:34.480Z,60.50
2022-09-23T05:19:03.349Z,60.00
2022-09-23T05:21:31.313Z,60.10
2022-09-23T05:24:00.797Z,59.70
2022-09-23T05:26:31.227Z,58.90
2022-09-23T05:28:59.597Z,58.40
2022-09-23T05:31:29.051Z,57.40
2022-09-23T05:33:59.949Z,55.70
2022-09-23T05:36:28.944Z,57.20
2022-09-23T05:38:57.887Z,57.30
2022-09-23T05:41:27.339Z,59.00
2022-09-23T05:43:56.615Z,59.20
2022-09-23T05:46:27.893Z,58.00
2022-09-23T05:49:02.694Z,57.90
2022-09-23T05:51:32.325Z,54.70
2022-09-23T05:54:02.918Z,55.50
2022-09-23T05:56:32.313Z,55.40
2022-09-23T05:59:01.833Z,54.60
2022-09-23T06:01:33.964Z,53.70
2022-09-23T06:04:06.054Z,53.60
2022-09-23T06:06:36.145Z,52.60
2022-09-23T06:09:04.769Z,51.30
2022-09-23T06:11:34.206Z,51.40
2022-09-23T06:14:02.749Z,51.60
2022-09-23T06:16:32.490Z,50.60
2022-09-23T06:19:05.884Z,50.10
2022-09-23T06:21:37.839Z,50.00
2022-09-23T06:24:07.561Z,49.00
2022-09-23T06:26:36.369Z,49.20
2022-09-23T06:29:06.296Z,48.70
2022-09-23T06:31:34.419Z,48.50
2022-09-23T06:34:11.073Z,48.00
2022-09-23T06:36:44.498Z,47.80
2022-09-23T06:39:13.283Z,47.30
2022-09-23T06:41:41.161Z,47.90
2022-09-23T06:44:09.026Z,47.40
2022-09-23T06:46:37.190Z,46.90
2022-09-23T06:49:05.134Z,47.10
2022-09-23T06:51:32.998Z,47.60
2022-09-23T06:54:02.556Z,47.70
2022-09-23T06:56:33.613Z,48.40
2022-09-23T06:59:06.053Z,49.50
2022-09-23T07:01:34.517Z,49.00
2022-09-23T07:04:02.882Z,48.60
2022-09-23T07:06:30.772Z,47.80
2022-09-23T07:08:58.624Z,47.80
2022-09-23T07:11:27.925Z,48.30
2022-09-23T07:13:55.746Z,47.80
2022-09-23T07:16:23.649Z,47.20
2022-09-23T07:18:52.871Z,47.50
2022-09-23T07:21:21.044Z,46.70
2022-09-23T07:23:51.696Z,46.50
2022-09-23T07:26:20.739Z,45.60
2022-09-23T07:28:55.334Z,44.10
2022-09-23T07:31:36.077Z,44.40
2022-09-23T07:34:07.669Z,45.00
2022-09-23T07:36:37.391Z,43.70
2022-09-23T07:39:05.644Z,41.80
2022-09-23T07:41:35.034Z,40.50
2022-09-23T07:44:06.111Z,40.60
2022-09-23T07:46:36.957Z,42.60
2022-09-23T07:49:05.975Z,41.80
2022-09-23T07:51:36.925Z,41.80
2022-09-23T07:54:07.798Z,41.30
2022-09-23T07:56:36.334Z,40.60
2022-09-23T07:59:08.495Z,38.90
2022-09-23T08:01:37.909Z,40.10
2022-09-23T08:04:08.071Z,40.60
2022-09-23T08:06:36.751Z,43.00
2022-09-23T08:09:05.194Z,41.50
2022-09-23T08:11:33.109Z,42.00
2022-09-23T08:14:00.943Z,40.90
2022-09-23T08:16:30.313Z,42.70
2022-09-23T08:18:58.241Z,41.90
2022-09-23T08:21:26.137Z,42.40
2022-09-23T08:23:53.965Z,41.00
2022-09-23T08:26:22.540Z,41.30
2022-09-23T08:28:54.496Z,41.60
2022-09-23T08:31:23.187Z,42.20
2022-09-23T08:33:56.877Z,41.70
2022-09-23T08:36:25.250Z,42.20
2022-09-23T08:38:53.167Z,40.80
2022-09-23T08:41:30.372Z,40.70
2022-09-23T08:44:02.892Z,38.90
2022-09-23T08:46:33.263Z,40.00
2022-09-23T08:49:03.023Z,40.10
2022-09-23T08:51:40.398Z,40.80
2022-09-23T08:54:11.252Z,38.10
2022-09-23T08:56:39.888Z,40.20
2022-09-23T08:59:14.772Z,39.90
2022-09-23T09:01:45.331Z,39.50
2022-09-23T09:04:21.387Z,38.90
2022-09-23T09:06:54.877Z,38.10
2022-09-23T09:09:29.111Z,38.20
2022-09-23T09:12:04.111Z,37.30
2022-09-23T09:14:38.452Z,37.80
2022-09-23T09:17:10.620Z,38.40
2022-09-23T09:19:58.721Z,39.40
2022-09-23T09:22:58.138Z,38.20
2022-09-23T09:25:45.017Z,37.20
2022-09-23T09:28:31.640Z,38.10
2022-09-23T09:31:10.152Z,38.60
2022-09-23T09:33:48.275Z,35.80
2022-09-23T09:36:33.622Z,33.50
2022-09-23T09:39:12.679Z,33.90
2022-09-23T09:41:50.087Z,34.90
2022-09-23T09:44:30.126Z,34.80
2022-09-23T09:47:29.941Z,34.10
2022-09-23T09:50:08.725Z,37.40
2022-09-23T09:53:25.380Z,37.60
2022-09-23T09:56:06.856Z,36.60
2022-09-23T09:58:43.769Z,34.60
2022-09-23T10:01:20.579Z,33.80
2022-09-23T10:03:49.928Z,34.50
2022-09-23T10:06:21.783Z,34.60
2022-09-23T10:09:10.453Z,34.20
2022-09-23T10:11:39.140Z,32.50
2022-09-23T10:14:13.427Z,31.50
2022-09-23T10:16:42.621Z,30.40
2022-09-23T10:19:19.405Z,29.70
2022-09-23T10:21:53.068Z,32.20
2022-09-23T10:24:26.334Z,29.80
2022-09-23T10:26:58.627Z,30.90
2022-09-23T10:29:31.307Z,29.50
2022-09-23T10:32:26.460Z,28.50
2022-09-23T10:34:58.065Z,28.10
2022-09-23T10:37:34.206Z,29.20
2022-09-23T10:40:32.940Z,28.20
2022-09-23T10:43:38.399Z,28.80
2022-09-23T10:46:27.034Z,27.00
2022-09-23T10:49:16.467Z,24.90
2022-09-23T10:51:54.296Z,26.30
2022-09-23T10:54:31.190Z,28.20
2022-09-23T10:57:27.025Z,28.00
2022-09-23T11:00:03.507Z,26.00
2022-09-23T11:03:00.469Z,26.80
2022-09-23T11:05:37.004Z,28.10
2022-09-23T11:08:19.996Z,27.10
2022-09-23T11:11:03.894Z,24.10
2022-09-23T11:13:43.602Z,25.20
2022-09-23T11:16:21.142Z,26.50
2022-09-23T11:19:12.955Z,27.60
2022-09-23T11:21:58.324Z,25.40
2022-09-23T11:24:43.272Z,25.30
2022-09-23T11:27:25.973Z,24.20
2022-09-23T11:30:11.688Z,23.80
2022-09-23T11:33:14.064Z,24.60
2022-09-23T11:35:49.887Z,25.10
2022-09-23T11:38:25.947Z,24.90
2022-09-23T11:40:59.038Z,25.00
2022-09-23T11:43:29.790Z,24.40
2022-09-23T11:46:04.963Z,24.30
2022-09-23T11:48:38.957Z,23.80
2022-09-23T11:51:13.457Z,24.10
2022-09-23T11:53:46.943Z,25.10
2022-09-23T11:56:31.879Z,24.80
2022-09-23T11:59:09.647Z,24.70
2022-09-23T12:01:45.775Z,23.30
2022-09-23T12:04:23.010Z,23.50
2022-09-23T12:06:56.592Z,24.80
2022-09-23T12:09:54.032Z,23.60
2022-09-23T12:12:27.337Z,24.30
2022-09-23T12:15:01.514Z,24.20
2022-09-23T12:17:57.745Z,23.60
2022-09-23T12:20:45.572Z,24.20
2022-09-23T12:23:28.414Z,24.10
2022-09-23T12:25:58.594Z,23.40
2022-09-23T12:28:29.593Z,23.30
2022-09-23T12:31:00.109Z,24.40
2022-09-23T12:33:32.345Z,25.00
2022-09-23T12:36:04.802Z,23.60
2022-09-23T12:38:36.232Z,23.60
2022-09-23T12:41:21.983Z,22.70
2022-09-23T12:43:54.849Z,22.30
2022-09-23T12:46:26.145Z,22.60
2022-09-23T12:49:03.746Z,23.40
2022-09-23T12:51:34.203Z,22.70
2022-09-23T12:54:24.825Z,23.60
2022-09-23T12:57:18.810Z,24.90
2022-09-23T13:03:22.497Z,21.90
2022-09-23T13:11:51.767Z,23.70
2022-09-23T13:14:44.160Z,23.60
2022-09-23T13:17:35.694Z,24.00
2022-09-23T13:20:48.169Z,23.60
2022-09-23T13:23:26.193Z,22.50
2022-09-23T13:26:01.158Z,23.30
2022-09-23T13:28:36.879Z,23.10
2022-09-23T13:31:06.319Z,24.60
2022-09-23T13:33:43.176Z,24.50
2022-09-23T13:36:16.227Z,24.10
2022-09-23T13:38:47.014Z,25.30
2022-09-23T13:41:17.763Z,24.10
2022-09-23T13:43:49.268Z,25.10
2022-09-23T13:46:19.586Z,24.30
2022-09-23T13:48:49.358Z,24.10
2022-09-23T13:51:22.908Z,25.00
2022-09-23T13:53:55.963Z,25.30
2022-09-23T13:56:25.197Z,24.80
2022-09-23T13:58:53.442Z,25.00
2022-09-23T14:01:32.306Z,24.40
2022-09-23T14:04:00.996Z,24.90
2022-09-23T14:06:30.541Z,25.20
2022-09-23T14:09:02.039Z,26.30
2022-09-23T14:11:33.144Z,26.50
2022-09-23T14:14:07.409Z,25.60
2022-09-23T14:16:40.559Z,27.50
2022-09-23T14:19:14.528Z,26.40
2022-09-23T14:21:42.631Z,27.10
2022-09-23T14:24:20.982Z,26.60
2022-09-23T14:26:51.013Z,27.20
2022-09-23T14:29:20.886Z,26.70
2022-09-23T14:31:57.665Z,26.10
2022-09-23T14:34:46.420Z,26.70
2022-09-23T14:37:44.879Z,26.70
2022-09-23T14:40:17.746Z,28.20
2022-09-23T14:42:49.015Z,27.10
2022-09-23T14:45:20.144Z,26.60
2022-09-23T14:47:50.509Z,26.30
2022-09-23T14:50:40.659Z,26.00
2022-09-23T14:53:34.644Z,25.80
2022-09-23T14:56:16.769Z,26.20
2022-09-23T14:58:53.499Z,26.80
2022-09-23T15:01:39.695Z,27.60
2022-09-23T15:04:17.303Z,27.60
2022-09-23T15:06:50.784Z,27.80
2022-09-23T15:09:23.822Z,26.50
2022-09-23T15:11:59.359Z,26.50
2022-09-23T15:14:39.123Z,27.60
2022-09-23T15:17:17.399Z,27.50
2022-09-23T15:19:46.540Z,27.90
2022-09-23T15:22:16.578Z,27.20
2022-09-23T15:24:46.375Z,27.30
2022-09-23T15:27:32.061Z,28.20
2022-09-23T15:30:15.048Z,28.60
2022-09-23T15:32:43.678Z,29.00
2022-09-23T15:35:15.774Z,29.60
2022-09-23T15:37:44.481Z,29.40
2022-09-23T15:40:22.099Z,29.80
2022-09-23T15:42:53.528Z,30.00
2022-09-23T15:45:27.555Z,30.40
2022-09-23T15:47:56.911Z,30.40
2022-09-23T15:50:24.929Z,31.10
2022-09-23T15:52:52.947Z,32.40
2022-09-23T15:55:23.013Z,34.80
2022-09-23T15:57:52.902Z,36.80
2022-09-23T16:00:21.559Z,37.80
2022-09-23T16:02:51.436Z,39.40
2022-09-23T16:05:24.880Z,38.10
2022-09-23T16:07:53.583Z,38.90
2022-09-23T16:10:23.772Z,39.40
2022-09-23T16:12:55.133Z,40.80
2022-09-23T16:15:24.879Z,41.90
2022-09-23T16:17:53.271Z,42.20
2022-09-23T16:20:21.424Z,41.70
2022-09-23T16:22:53.960Z,42.00
2022-09-23T16:25:22.697Z,42.70
2022-09-23T16:27:55.467Z,43.30
2022-09-23T16:30:24.049Z,45.00
2022-09-23T16:32:52.736Z,44.30
2022-09-23T16:35:21.099Z,45.10
2022-09-23T16:37:49.207Z,46.00
2022-09-23T16:40:19.911Z,45.90
2022-09-23T16:42:48.175Z,47.30
2022-09-23T16:45:19.050Z,48.00
2022-09-23T16:47:48.824Z,48.70
2022-09-23T16:50:18.940Z,49.10
2022-09-23T16:52:46.999Z,49.40
2022-09-23T16:55:15.747Z,49.40
2022-09-23T16:57:43.705Z,49.20
2022-09-23T17:00:33.124Z,49.60
2022-09-23T17:03:20.872Z,49.90
2022-09-23T17:05:49.845Z,50.20
2022-09-23T17:08:18.868Z,50.40
2022-09-23T17:10:57.183Z,50.20
2022-09-23T17:13:25.407Z,50.00
2022-09-23T17:15:54.444Z,50.40
2022-09-23T17:18:23.948Z,50.70
2022-09-23T17:20:59.907Z,51.20
2022-09-23T17:23:28.378Z,51.60
2022-09-23T17:25:56.466Z,51.80
2022-09-23T17:28:24.782Z,52.10
2022-09-23T17:30:57.958Z,52.30
2022-09-23T17:33:28.108Z,52.30
2022-09-23T17:35:56.790Z,52.40
2022-09-23T17:38:28.664Z,53.00
2022-09-23T17:40:59.092Z,52.90
2022-09-23T17:43:27.654Z,51.90
2022-09-23T17:45:57.263Z,53.30
2022-09-23T17:48:27.048Z,52.80
2022-09-23T17:50:56.408Z,53.40
2022-09-23T17:53:24.946Z,53.60
2022-09-23T17:55:56.768Z,53.70
2022-09-23T17:58:29.443Z,53.90
2022-09-23T18:00:58.283Z,53.70
2022-09-23T18:03:29.659Z,53.60
2022-09-23T18:06:07.551Z,53.30
2022-09-23T18:08:35.646Z,53.30
2022-09-23T18:11:15.431Z,53.20
2022-09-23T18:13:43.496Z,53.20
2022-09-23T18:16:11.556Z,53.20
2022-09-23T18:18:40.867Z,53.00
2022-09-23T18:21:10.316Z,52.70
2022-09-23T18:23:38.442Z,52.80
2022-09-23T18:26:14.955Z,53.10
2022-09-23T18:28:43.591Z,53.70
2022-09-23T18:31:12.460Z,53.60
2022-09-23T18:33:41.985Z,53.70
2022-09-23T18:36:10.399Z,53.90
2022-09-23T18:38:38.278Z,54.00
2022-09-23T18:41:07.210Z,54.00
2022-09-23T18:43:40.771Z,54.00
2022-09-23T18:46:13.386Z,54.00
2022-09-23T18:49:00.367Z,53.70
2022-09-23T18:51:29.557Z,53.80
2022-09-23T18:53:58.608Z,54.20
2022-09-23T18:56:29.640Z,54.20
2022-09-23T18:58:57.607Z,54.20
2022-09-23T19:01:25.906Z,53.90
2022-09-23T19:03:59.139Z,54.60
2022-09-23T19:06:27.467Z,55.60
2022-09-23T19:08:56.295Z,55.40
2022-09-23T19:11:24.973Z,55.30
2022-09-23T19:13:57.086Z,55.20
2022-09-23T19:16:26.254Z,55.00
2022-09-23T19:18:54.337Z,54.80
2022-09-23T19:21:23.958Z,54.90
2022-09-23T19:23:53.879Z,55.10
2022-09-23T19:26:24.730Z,55.20
2022-09-23T19:28:54.951Z,55.00
2022-09-23T19:31:25.083Z,54.90
2022-09-23T19:33:55.960Z,55.00
2022-09-23T19:36:26.791Z,55.40
2022-09-23T19:38:55.753Z,56.10
2022-09-23T19:41:24.199Z,56.30
2022-09-23T19:43:53.982Z,56.80
2022-09-23T19:46:23.122Z,56.70
2022-09-23T19:48:51.016Z,56.30
2022-09-23T19:51:19.366Z,55.90
2022-09-23T19:53:48.748Z,55.70
2022-09-23T19:56:18.066Z,55.70
2022-09-23T19:58:47.222Z,55.70
2022-09-23T20:01:16.244Z,56.20
2022-09-23T20:03:44.580Z,56.10
2022-09-23T20:06:12.735Z,56.10
2022-09-23T20:08:40.834Z,56.90
2022-09-23T20:11:12.549Z,56.70
2022-09-23T20:13:41.569Z,57.20
2022-09-23T20:16:11.836Z,57.50
2022-09-23T20:18:40.059Z,58.00
2022-09-23T20:21:11.213Z,57.40
2022-09-23T20:23:39.416Z,57.70
2022-09-23T20:26:25.656Z,58.50
2022-09-23T20:28:55.726Z,58.00
2022-09-23T20:31:25.108Z,59.40
2022-09-23T20:33:58.359Z,58.40
2022-09-23T20:36:26.614Z,59.00
2022-09-23T20:38:55.307Z,58.70
2022-09-23T20:41:23.497Z,58.20
2022-09-23T20:43:55.107Z,58.10
2022-09-23T20:46:23.955Z,58.20
2022-09-23T20:48:51.894Z,57.80
2022-09-23T20:51:19.829Z,58.70
2022-09-23T20:53:51.765Z,59.20
2022-09-23T20:56:19.892Z,59.30
2022-09-23T20:58:50.317Z,58.60
2022-09-23T21:01:20.170Z,58.80
2022-09-23T21:03:50.017Z,58.30
2022-09-23T21:06:19.538Z,57.80
2022-09-23T21:08:47.759Z,58.10
2022-09-23T21:11:17.874Z,58.60
2022-09-23T21:13:50.162Z,58.30
2022-09-23T21:16:22.355Z,58.30
2022-09-23T21:18:51.575Z,58.40
2022-09-23T21:21:22.006Z,58.40
2022-09-23T21:23:50.955Z,58.10
2022-09-23T21:26:20.303Z,58.30
2022-09-23T21:28:49.507Z,58.60
2022-09-23T21:31:23.969Z,58.50
2022-09-23T21:33:55.680Z,58.90
2022-09-23T21:36:24.764Z,59.60
2022-09-23T21:38:53.415Z,59.00
2022-09-23T21:41:21.425Z,57.60
2022-09-23T21:43:49.748Z,58.80
2022-09-23T21:46:21.153Z,58.60
2022-09-23T21:48:53.247Z,58.20
2022-09-23T21:51:24.127Z,57.80
2022-09-23T21:53:52.961Z,58.40
2022-09-23T21:56:22.851Z,58.50
2022-09-23T21:58:52.122Z,58.50
2022-09-23T22:01:23.403Z,58.30
2022-09-23T22:03:53.429Z,58.20
2022-09-23T22:06:23.502Z,59.70
2022-09-23T22:08:54.591Z,59.50
2022-09-23T22:11:41.979Z,60.00
2022-09-23T22:14:13.463Z,59.80
2022-09-23T22:16:43.455Z,59.50
2022-09-23T22:19:13.551Z,61.20
2022-09-23T22:21:42.837Z,61.10
2022-09-23T22:24:12.483Z,60.50
2022-09-23T22:26:41.849Z,60.00
2022-09-23T22:29:28.634Z,60.10
2022-09-23T22:32:21.348Z,60.10
2022-09-23T22:34:51.439Z,60.10
2022-09-23T22:37:22.428Z,60.00
2022-09-23T22:39:50.333Z,60.00
2022-09-23T22:42:20.943Z,59.80
2022-09-23T22:44:48.820Z,59.30
2022-09-23T22:47:18.600Z,59.10
2022-09-23T22:49:47.300Z,59.30
2022-09-23T22:52:21.075Z,59.30
2022-09-23T22:54:49.252Z,59.40
2022-09-23T22:57:17.123Z,59.20
2022-09-23T22:59:48.374Z,59.90
2022-09-23T23:02:19.114Z,60.00
2022-09-23T23:04:48.459Z,60.00
2022-09-23T23:07:20.417Z,60.00
2022-09-23T23:09:48.386Z,59.30
2022-09-23T23:12:16.800Z,59.20
2022-09-23T23:14:45.106Z,58.90
2022-09-23T23:17:12.970Z,59.30
2022-09-23T23:19:42.212Z,59.30
2022-09-23T23:22:10.043Z,59.80
2022-09-23T23:24:37.856Z,59.70
2022-09-23T23:27:05.856Z,60.50
2022-09-23T23:29:33.718Z,59.70
2022-09-23T23:32:01.687Z,59.70
2022-09-23T23:34:29.546Z,59.30
2022-09-23T23:36:58.812Z,59.70
2022-09-23T23:39:26.784Z,59.80
2022-09-23T23:41:55.714Z,60.40
2022-09-23T23:44:24.616Z,59.70
2022-09-23T23:46:53.027Z,58.50
2022-09-23T23:49:21.531Z,58.50
2022-09-23T23:51:49.439Z,59.40
2022-09-23T23:54:18.879Z,59.40
2022-09-23T23:56:46.904Z,59.50
2022-09-23T23:59:14.835Z,59.50
